Time,TemperatureF,DewpointF,PressureIn,WindDirection,WindDirectionDegrees,WindSpeedMPH,WindSpeedGustMPH,Humidity,HourlyPrecipIn,Conditions,Clouds,dailyrainin,SoftwareType,DateUTC
2013-04-05 00:01:00,31.8,22.2,30.10,ENE,67,0.0,0.0,67,0.00,,,0.00,WUHU21636XXSP,2013-04-05 05:01:00,
2013-04-05 00:06:00,31.8,22.2,30.10,ENE,67,0.0,0.0,67,0.00,,,0.00,WUHU21636XXSP,2013-04-05 05:06:00,
2013-04-05 00:11:00,31.8,22.2,30.10,ENE,67,0.0,0.0,67,0.00,,,0.00,WUHU21636XXSP,2013-04-05 05:11:00,
2013-04-05 00:16:00,31.8,22.2,30.10,ENE,67,0.0,0.0,67,0.00,,,0.00,WUHU21636XXSP,2013-04-05 05:16:00,
2013-04-05 00:21:00,31.5,21.9,30.10,ENE,67,0.0,0.0,67,0.00,,,0.00,WUHU21636XXSP,2013-04-05 05:21:00,
2013-04-05 00:26:00,31.3,21.7,30.10,ENE,67,0.0,0.0,67,0.00,,,0.00,WUHU21636XXSP,2013-04-05 05:26:00,
2013-04-05 00:31:00,31.1,21.8,30.10,ENE,67,0.0,0.0,68,0.00,,,0.00,WUHU21636XXSP,2013-04-05 05:31:00,
2013-04-05 00:36:00,31.1,21.8,30.10,ENE,67,0.0,0.0,68,0.00,,,0.00,WUHU21636XXSP,2013-04-05 05:36:00,
2013-04-05 00:41:00,30.9,21.6,30.10,ENE,67,0.0,0.0,68,0.00,,,0.00,WUHU21636XXSP,2013-04-05 05:41:00,
2013-04-05 00:47:00,30.9,22.0,30.10,ENE,67,0.0,0.0,69,0.00,,,0.00,WUHU21636XXSP,2013-04-05 05:47:00,
2013-04-05 00:52:00,30.8,21.9,30.10,ENE,67,0.0,0.0,69,0.00,,,0.00,WUHU21636XXSP,2013-04-05 05:52:00,
2013-04-05 00:57:00,30.6,21.7,30.10,ENE,67,0.0,0.0,69,0.00,,,0.00,WUHU21636XXSP,2013-04-05 05:57:00,
2013-04-05 01:02:00,30.6,21.7,30.10,ENE,67,0.0,0.0,69,0.00,,,0.00,WUHU21636XXSP,2013-04-05 06:02:00,
2013-04-05 01:07:00,30.3,21.5,30.11,ENE,67,0.0,0.0,69,0.00,,,0.00,WUHU21636XXSP,2013-04-05 06:07:00,
2013-04-05 01:12:00,30.1,21.3,30.11,ENE,67,0.0,0.0,69,0.00,,,0.00,WUHU21636XXSP,2013-04-05 06:12:00,
2013-04-05 01:17:00,29.9,21.4,30.12,ENE,67,0.0,0.0,70,0.00,,,0.00,WUHU21636XXSP,2013-04-05 06:17:00,
2013-04-05 01:22:00,29.9,21.7,30.12,ENE,67,0.0,0.0,71,0.00,,,0.00,WUHU21636XXSP,2013-04-05 06:22:00,
2013-04-05 01:27:00,29.9,21.7,30.12,ENE,67,0.0,0.0,71,0.00,,,0.00,WUHU21636XXSP,2013-04-05 06:27:00,
2013-04-05 01:32:00,29.8,21.3,30.12,ENE,67,0.0,0.0,70,0.00,,,0.00,WUHU21636XXSP,2013-04-05 06:32:00,
2013-04-05 01:37:00,29.8,21.3,30.12,ENE,67,0.0,0.0,70,0.00,,,0.00,WUHU21636XXSP,2013-04-05 06:37:00,
2013-04-05 01:42:00,29.6,21.1,30.12,ENE,67,0.0,0.0,70,0.00,,,0.00,WUHU21636XXSP,2013-04-05 06:42:00,
2013-04-05 01:47:00,29.6,21.1,30.13,ENE,67,0.0,0.0,70,0.00,,,0.00,WUHU21636XXSP,2013-04-05 06:47:00,
2013-04-05 01:52:00,29.4,20.9,30.13,ENE,67,0.0,0.0,70,0.00,,,0.00,WUHU21636XXSP,2013-04-05 06:52:00,
2013-04-05 01:57:00,29.4,20.9,30.13,ENE,67,0.0,0.0,70,0.00,,,0.00,WUHU21636XXSP,2013-04-05 06:57:00,
2013-04-05 02:02:00,29.2,20.7,30.14,ENE,67,0.0,0.0,70,0.00,,,0.00,WUHU21636XXSP,2013-04-05 07:02:00,
2013-04-05 02:07:00,29.2,21.0,30.14,ENE,67,0.0,0.0,71,0.00,,,0.00,WUHU21636XXSP,2013-04-05 07:07:00,
2013-04-05 02:12:00,29.2,21.0,30.13,ENE,67,0.0,0.0,71,0.00,,,0.00,WUHU21636XXSP,2013-04-05 07:12:00,
2013-04-05 02:17:00,29.2,21.0,30.13,ENE,67,0.0,0.0,71,0.00,,,0.00,WUHU21636XXSP,2013-04-05 07:17:00,
2013-04-05 02:22:00,29.0,20.8,30.13,ENE,67,0.0,0.0,71,0.00,,,0.00,WUHU21636XXSP,2013-04-05 07:22:00,
2013-04-05 02:27:00,28.9,20.7,30.13,ENE,67,0.0,0.0,71,0.00,,,0.00,WUHU21636XXSP,2013-04-05 07:27:00,
2013-04-05 02:32:00,28.9,21.0,30.13,ENE,67,0.0,0.0,72,0.00,,,0.00,WUHU21636XXSP,2013-04-05 07:32:00,
2013-04-05 02:37:00,28.9,21.0,30.13,ENE,67,0.0,0.0,72,0.00,,,0.00,WUHU21636XXSP,2013-04-05 07:37:00,
2013-04-05 02:42:00,28.7,20.8,30.13,ENE,67,0.0,0.0,72,0.00,,,0.00,WUHU21636XXSP,2013-04-05 07:42:00,
2013-04-05 02:47:00,28.7,20.8,30.14,ENE,67,0.0,0.0,72,0.00,,,0.00,WUHU21636XXSP,2013-04-05 07:47:00,
2013-04-05 02:52:00,28.7,20.5,30.13,ENE,67,0.0,0.0,71,0.00,,,0.00,WUHU21636XXSP,2013-04-05 07:52:00,
2013-04-05 02:57:00,28.5,20.6,30.13,ENE,67,0.0,0.0,72,0.00,,,0.00,WUHU21636XXSP,2013-04-05 07:57:00,
2013-04-05 03:02:00,28.2,20.4,30.13,ENE,67,0.0,0.0,72,0.00,,,0.00,WUHU21636XXSP,2013-04-05 08:02:00,
2013-04-05 03:07:00,28.2,20.4,30.13,ENE,67,0.0,0.0,72,0.00,,,0.00,WUHU21636XXSP,2013-04-05 08:07:00,
2013-04-05 03:12:00,28.2,20.4,30.13,ENE,67,0.0,0.0,72,0.00,,,0.00,WUHU21636XXSP,2013-04-05 08:12:00,
2013-04-05 03:17:00,28.2,20.4,30.14,ENE,67,0.0,0.0,72,0.00,,,0.00,WUHU21636XXSP,2013-04-05 08:17:00,
2013-04-05 03:22:00,28.0,20.2,30.14,ENE,67,0.0,0.0,72,0.00,,,0.00,WUHU21636XXSP,2013-04-05 08:22:00,
2013-04-05 03:27:00,28.0,20.2,30.14,ENE,67,0.0,0.0,72,0.00,,,0.00,WUHU21636XXSP,2013-04-05 08:27:00,
2013-04-05 03:32:00,28.0,20.2,30.14,ENE,67,0.0,0.0,72,0.00,,,0.00,WUHU21636XXSP,2013-04-05 08:32:00,
2013-04-05 03:37:00,28.0,20.2,30.15,ENE,67,0.0,0.0,72,0.00,,,0.00,WUHU21636XXSP,2013-04-05 08:37:00,
2013-04-05 03:42:00,28.0,20.2,30.15,ENE,67,0.0,0.0,72,0.00,,,0.00,WUHU21636XXSP,2013-04-05 08:42:00,
2013-04-05 03:47:00,27.7,19.9,30.14,ENE,67,0.0,0.0,72,0.00,,,0.00,WUHU21636XXSP,2013-04-05 08:47:00,
2013-04-05 03:52:00,27.7,19.9,30.15,ENE,67,0.0,0.0,72,0.00,,,0.00,WUHU21636XXSP,2013-04-05 08:52:00,
2013-04-05 03:57:00,27.7,19.9,30.15,ENE,67,0.0,0.0,72,0.00,,,0.00,WUHU21636XXSP,2013-04-05 08:57:00,
2013-04-05 04:02:00,27.7,19.9,30.15,ENE,67,0.0,0.0,72,0.00,,,0.00,WUHU21636XXSP,2013-04-05 09:02:00,
2013-04-05 04:07:00,27.5,19.7,30.15,ENE,67,0.0,0.0,72,0.00,,,0.00,WUHU21636XXSP,2013-04-05 09:07:00,
2013-04-05 04:12:00,27.5,19.7,30.15,ENE,67,0.0,0.0,72,0.00,,,0.00,WUHU21636XXSP,2013-04-05 09:12:00,
2013-04-05 04:17:00,27.3,19.5,30.15,ENE,67,0.0,0.0,72,0.00,,,0.00,WUHU21636XXSP,2013-04-05 09:17:00,
2013-04-05 04:22:00,27.3,19.5,30.15,ENE,67,0.0,0.0,72,0.00,,,0.00,WUHU21636XXSP,2013-04-05 09:22:00,
2013-04-05 04:27:00,27.1,19.3,30.15,ENE,67,0.0,0.0,72,0.00,,,0.00,WUHU21636XXSP,2013-04-05 09:27:00,
2013-04-05 04:32:00,27.1,19.6,30.15,ENE,67,0.0,0.0,73,0.00,,,0.00,WUHU21636XXSP,2013-04-05 09:32:00,
2013-04-05 04:37:00,27.1,19.3,30.15,ENE,67,0.0,0.0,72,0.00,,,0.00,WUHU21636XXSP,2013-04-05 09:37:00,
2013-04-05 04:42:00,27.1,19.6,30.16,ENE,67,0.0,0.0,73,0.00,,,0.00,WUHU21636XXSP,2013-04-05 09:42:00,
2013-04-05 04:47:00,27.1,19.6,30.16,ENE,67,0.0,0.0,73,0.00,,,0.00,WUHU21636XXSP,2013-04-05 09:47:00,
2013-04-05 04:52:00,27.0,19.5,30.16,ENE,67,0.0,0.0,73,0.00,,,0.00,WUHU21636XXSP,2013-04-05 09:52:00,
2013-04-05 04:57:00,27.0,19.5,30.17,ENE,67,0.0,0.0,73,0.00,,,0.00,WUHU21636XXSP,2013-04-05 09:57:00,
2013-04-05 05:02:00,27.0,19.5,30.17,ENE,67,0.0,0.0,73,0.00,,,0.00,WUHU21636XXSP,2013-04-05 10:02:00,
2013-04-05 05:07:00,27.0,19.5,30.17,ENE,67,0.0,0.0,73,0.00,,,0.00,WUHU21636XXSP,2013-04-05 10:07:00,
2013-04-05 05:12:00,26.8,19.3,30.17,ENE,67,0.0,0.0,73,0.00,,,0.00,WUHU21636XXSP,2013-04-05 10:12:00,
2013-04-05 05:18:00,26.8,19.3,30.17,ENE,67,0.0,0.0,73,0.00,,,0.00,WUHU21636XXSP,2013-04-05 10:18:00,
2013-04-05 05:23:00,26.6,19.1,30.17,ENE,67,0.0,0.0,73,0.00,,,0.00,WUHU21636XXSP,2013-04-05 10:23:00,
2013-04-05 05:28:00,26.4,18.9,30.18,ENE,67,0.0,0.0,73,0.00,,,0.00,WUHU21636XXSP,2013-04-05 10:28:00,
2013-04-05 05:33:00,26.4,19.2,30.18,ENE,67,0.0,0.0,74,0.00,,,0.00,WUHU21636XXSP,2013-04-05 10:33:00,
2013-04-05 05:38:00,26.1,19.0,30.17,ENE,67,0.0,0.0,74,0.00,,,0.00,WUHU21636XXSP,2013-04-05 10:38:00,
2013-04-05 05:43:00,26.1,19.0,30.18,ENE,67,0.0,0.0,74,0.00,,,0.00,WUHU21636XXSP,2013-04-05 10:43:00,
2013-04-05 05:48:00,26.1,19.3,30.18,ENE,67,0.0,0.0,75,0.00,,,0.00,WUHU21636XXSP,2013-04-05 10:48:00,
2013-04-05 05:53:00,26.1,19.3,30.18,ENE,67,0.0,0.0,75,0.00,,,0.00,WUHU21636XXSP,2013-04-05 10:53:00,
2013-04-05 05:58:00,26.0,19.2,30.18,ENE,67,0.0,0.0,75,0.00,,,0.00,WUHU21636XXSP,2013-04-05 10:58:00,
2013-04-05 06:03:00,26.0,18.9,30.18,ENE,67,0.0,0.0,74,0.00,,,0.00,WUHU21636XXSP,2013-04-05 11:03:00,
2013-04-05 06:08:00,25.8,19.0,30.18,ENE,67,0.0,0.0,75,0.00,,,0.00,WUHU21636XXSP,2013-04-05 11:08:00,
2013-04-05 06:13:00,25.8,19.0,30.19,ENE,67,0.0,0.0,75,0.00,,,0.00,WUHU21636XXSP,2013-04-05 11:13:00,
2013-04-05 06:18:00,25.6,18.8,30.19,ENE,67,0.0,0.0,75,0.00,,,0.00,WUHU21636XXSP,2013-04-05 11:18:00,
2013-04-05 06:24:00,25.6,18.8,30.19,ENE,67,0.0,0.0,75,0.00,,,0.00,WUHU21636XXSP,2013-04-05 11:24:00,
2013-04-05 06:29:00,25.6,19.1,30.20,ENE,67,0.0,0.0,76,0.00,,,0.00,WUHU21636XXSP,2013-04-05 11:29:00,
2013-04-05 06:34:00,25.4,18.9,30.20,ENE,67,0.0,0.0,76,0.00,,,0.00,WUHU21636XXSP,2013-04-05 11:34:00,
2013-04-05 06:39:00,25.4,18.6,30.20,ENE,67,0.0,0.0,75,0.00,,,0.00,WUHU21636XXSP,2013-04-05 11:39:00,
2013-04-05 06:44:00,25.4,18.6,30.20,ENE,67,0.0,0.0,75,0.00,,,0.00,WUHU21636XXSP,2013-04-05 11:44:00,
2013-04-05 06:49:00,25.4,18.6,30.20,ENE,67,0.0,0.0,75,0.00,,,0.00,WUHU21636XXSP,2013-04-05 11:49:00,
2013-04-05 06:54:00,25.2,18.4,30.20,ENE,67,0.0,0.0,75,0.00,,,0.00,WUHU21636XXSP,2013-04-05 11:54:00,
2013-04-05 06:59:00,25.2,18.4,30.20,ENE,67,0.0,0.0,75,0.00,,,0.00,WUHU21636XXSP,2013-04-05 11:59:00,
2013-04-05 07:04:00,25.2,18.7,30.20,ENE,67,0.0,0.0,76,0.00,,,0.00,WUHU21636XXSP,2013-04-05 12:04:00,
2013-04-05 07:09:00,25.2,18.7,30.20,ENE,67,0.0,0.0,76,0.00,,,0.00,WUHU21636XXSP,2013-04-05 12:09:00,
2013-04-05 07:14:00,25.1,18.3,30.20,ENE,67,0.0,0.0,75,0.00,,,0.00,WUHU21636XXSP,2013-04-05 12:14:00,
2013-04-05 07:19:00,25.1,18.3,30.20,ENE,67,0.0,0.0,75,0.00,,,0.00,WUHU21636XXSP,2013-04-05 12:19:00,
2013-04-05 07:24:00,25.2,18.7,30.20,ENE,67,0.0,0.0,76,0.00,,,0.00,WUHU21636XXSP,2013-04-05 12:24:00,
2013-04-05 07:29:00,25.2,18.7,30.21,ENE,67,0.0,0.0,76,0.00,,,0.00,WUHU21636XXSP,2013-04-05 12:29:00,
2013-04-05 07:34:00,25.4,18.9,30.21,ENE,67,0.0,0.0,76,0.00,,,0.00,WUHU21636XXSP,2013-04-05 12:34:00,
2013-04-05 07:39:00,25.6,19.1,30.21,ENE,67,0.0,0.0,76,0.00,,,0.00,WUHU21636XXSP,2013-04-05 12:39:00,
2013-04-05 07:44:00,25.6,19.4,30.21,ENE,67,0.0,0.0,77,0.00,,,0.00,WUHU21636XXSP,2013-04-05 12:44:00,
2013-04-05 07:49:00,25.8,19.6,30.21,ENE,67,0.0,0.0,77,0.00,,,0.00,WUHU21636XXSP,2013-04-05 12:49:00,
2013-04-05 07:54:00,26.1,19.9,30.21,ENE,67,0.0,0.0,77,0.00,,,0.00,WUHU21636XXSP,2013-04-05 12:54:00,
2013-04-05 08:00:00,26.4,19.8,30.21,ENE,67,0.0,0.0,76,0.00,,,0.00,WUHU21636XXSP,2013-04-05 13:00:00,
2013-04-05 08:05:00,26.8,20.3,30.21,SE,135,0.0,0.0,76,0.00,,,0.00,WUHU21636XXSP,2013-04-05 13:05:00,
2013-04-05 08:10:00,27.0,20.5,30.22,SE,135,0.0,0.0,76,0.00,,,0.00,WUHU21636XXSP,2013-04-05 13:10:00,
2013-04-05 08:15:00,27.3,20.8,30.21,SE,135,0.0,0.0,76,0.00,,,0.00,WUHU21636XXSP,2013-04-05 13:15:00,
2013-04-05 08:20:00,27.7,21.2,30.22,SE,135,0.0,0.0,76,0.00,,,0.00,WUHU21636XXSP,2013-04-05 13:20:00,
2013-04-05 08:25:00,28.2,21.7,30.22,East,90,0.0,0.0,76,0.00,,,0.00,WUHU21636XXSP,2013-04-05 13:25:00,
2013-04-05 08:30:00,28.9,22.0,30.22,ENE,67,0.0,0.0,75,0.00,,,0.00,WUHU21636XXSP,2013-04-05 13:30:00,
2013-04-05 08:35:00,29.4,22.2,30.22,ENE,67,0.0,0.0,74,0.00,,,0.00,WUHU21636XXSP,2013-04-05 13:35:00,
2013-04-05 08:40:00,30.1,21.9,30.22,NNE,22,0.0,0.0,71,0.00,,,0.00,WUHU21636XXSP,2013-04-05 13:40:00,
2013-04-05 08:45:00,30.9,21.3,30.22,East,90,0.0,0.0,67,0.00,,,0.00,WUHU21636XXSP,2013-04-05 13:45:00,
2013-04-05 08:50:00,31.3,20.6,30.22,NE,45,0.0,0.0,64,0.00,,,0.00,WUHU21636XXSP,2013-04-05 13:50:00,
2013-04-05 08:55:00,32.4,20.9,30.22,ENE,67,0.0,0.0,62,0.00,,,0.00,WUHU21636XXSP,2013-04-05 13:55:00,
2013-04-05 09:00:00,33.0,20.2,30.22,ESE,112,0.0,0.0,59,0.00,,,0.00,WUHU21636XXSP,2013-04-05 14:00:00,
2013-04-05 09:05:00,33.6,20.8,30.22,ESE,112,0.0,0.0,59,0.00,,,0.00,WUHU21636XXSP,2013-04-05 14:05:00,
2013-04-05 09:10:00,34.3,20.7,30.22,ENE,67,0.0,0.0,57,0.00,,,0.00,WUHU21636XXSP,2013-04-05 14:10:00,
2013-04-05 09:15:00,34.9,21.6,30.22,ESE,112,0.0,0.0,58,0.00,,,0.00,WUHU21636XXSP,2013-04-05 14:15:00,
2013-04-05 09:20:00,35.5,21.4,30.22,ENE,67,0.0,0.0,56,0.00,,,0.00,WUHU21636XXSP,2013-04-05 14:20:00,
2013-04-05 09:25:00,36.0,21.8,30.22,NE,45,0.0,0.0,56,0.00,,,0.00,WUHU21636XXSP,2013-04-05 14:25:00,
2013-04-05 09:30:00,36.8,22.1,30.23,East,90,0.0,0.0,55,0.00,,,0.00,WUHU21636XXSP,2013-04-05 14:30:00,
2013-04-05 09:36:00,37.4,20.9,30.22,NNW,337,0.0,0.0,51,0.00,,,0.00,WUHU21636XXSP,2013-04-05 14:36:00,
2013-04-05 09:41:00,38.1,22.0,30.22,SE,135,0.0,0.0,52,0.00,,,0.00,WUHU21636XXSP,2013-04-05 14:41:00,
2013-04-05 09:46:00,38.6,21.5,30.22,ENE,67,0.0,0.0,50,0.00,,,0.00,WUHU21636XXSP,2013-04-05 14:46:00,
2013-04-05 09:51:00,39.1,21.4,30.22,SE,135,0.0,0.0,49,0.00,,,0.00,WUHU21636XXSP,2013-04-05 14:51:00,
2013-04-05 09:56:00,40.2,22.0,30.22,ENE,67,0.0,0.0,48,0.00,,,0.00,WUHU21636XXSP,2013-04-05 14:56:00,
2013-04-05 10:01:00,40.5,22.3,30.22,SE,135,0.0,0.0,48,0.00,,,0.00,WUHU21636XXSP,2013-04-05 15:01:00,
2013-04-05 10:06:00,41.2,22.4,30.22,ESE,112,0.0,0.0,47,0.00,,,0.00,WUHU21636XXSP,2013-04-05 15:06:00,
2013-04-05 10:11:00,41.9,22.5,30.22,ESE,112,0.0,0.0,46,0.00,,,0.00,WUHU21636XXSP,2013-04-05 15:11:00,
2013-04-05 10:16:00,42.2,22.3,30.21,SE,135,0.0,0.0,45,0.00,,,0.00,WUHU21636XXSP,2013-04-05 15:16:00,
2013-04-05 10:21:00,42.4,21.3,30.21,NW,315,0.0,0.0,43,0.00,,,0.00,WUHU21636XXSP,2013-04-05 15:21:00,
2013-04-05 10:26:00,43.0,21.9,30.21,SE,135,0.0,0.0,43,0.00,,,0.00,WUHU21636XXSP,2013-04-05 15:26:00,
2013-04-05 10:31:00,43.4,21.0,30.20,South,180,0.0,0.0,41,0.00,,,0.00,WUHU21636XXSP,2013-04-05 15:31:00,
2013-04-05 10:36:00,44.1,21.1,30.21,ENE,67,0.0,0.0,40,0.00,,,0.00,WUHU21636XXSP,2013-04-05 15:36:00,
2013-04-05 10:41:00,44.3,21.3,30.21,NE,45,0.0,0.0,40,0.00,,,0.00,WUHU21636XXSP,2013-04-05 15:41:00,
2013-04-05 10:47:00,45.0,21.4,30.21,NE,45,0.0,0.0,39,0.00,,,0.00,WUHU21636XXSP,2013-04-05 15:47:00,
2013-04-05 10:52:00,45.3,20.9,30.20,NE,45,0.0,0.0,38,0.00,,,0.00,WUHU21636XXSP,2013-04-05 15:52:00,
2013-04-05 10:57:00,45.7,20.7,30.21,NE,45,0.0,0.0,37,0.00,,,0.00,WUHU21636XXSP,2013-04-05 15:57:00,
2013-04-05 11:01:00,45.7,20.7,30.21,NE,45,0.0,0.0,37,0.00,,,0.00,WUHU21636XXSP,2013-04-05 16:01:00,
2013-04-05 11:07:00,46.0,21.6,30.20,SE,135,0.0,0.0,38,0.00,,,0.00,WUHU21636XXSP,2013-04-05 16:07:00,
2013-04-05 11:12:00,46.2,21.8,30.21,NE,45,0.0,0.0,38,0.00,,,0.00,WUHU21636XXSP,2013-04-05 16:12:00,
2013-04-05 11:17:00,46.6,21.5,30.21,NE,45,0.0,0.0,37,0.00,,,0.00,WUHU21636XXSP,2013-04-05 16:17:00,
2013-04-05 11:22:00,47.1,22.0,30.21,East,90,0.0,0.0,37,0.00,,,0.00,WUHU21636XXSP,2013-04-05 16:22:00,
2013-04-05 11:27:00,47.6,21.7,30.21,ENE,67,0.0,0.0,36,0.00,,,0.00,WUHU21636XXSP,2013-04-05 16:27:00,
2013-04-05 11:32:00,48.3,21.7,30.21,ENE,67,0.0,0.0,35,0.00,,,0.00,WUHU21636XXSP,2013-04-05 16:32:00,
2013-04-05 11:37:00,48.5,21.9,30.21,East,90,0.0,0.0,35,0.00,,,0.00,WUHU21636XXSP,2013-04-05 16:37:00,
2013-04-05 11:42:00,49.0,23.0,30.21,ESE,112,0.0,0.0,36,0.00,,,0.00,WUHU21636XXSP,2013-04-05 16:42:00,
2013-04-05 11:47:00,49.8,22.3,30.21,ENE,67,0.0,0.0,34,0.00,,,0.00,WUHU21636XXSP,2013-04-05 16:47:00,
2013-04-05 11:52:00,50.4,22.8,30.21,ESE,112,0.0,0.0,34,0.00,,,0.00,WUHU21636XXSP,2013-04-05 16:52:00,
2013-04-05 11:57:00,50.7,23.1,30.21,East,90,0.0,0.0,34,0.00,,,0.00,WUHU21636XXSP,2013-04-05 16:57:00,
2013-04-05 12:02:00,50.7,21.7,30.20,ENE,67,0.0,0.0,32,0.00,,,0.00,WUHU21636XXSP,2013-04-05 17:02:00,
2013-04-05 12:07:00,50.9,22.6,30.20,SE,135,0.0,0.0,33,0.00,,,0.00,WUHU21636XXSP,2013-04-05 17:07:00,
2013-04-05 12:12:00,51.3,22.2,30.20,ENE,67,0.0,0.0,32,0.00,,,0.00,WUHU21636XXSP,2013-04-05 17:12:00,
2013-04-05 12:17:00,50.9,22.6,30.20,East,90,0.0,0.0,33,0.00,,,0.00,WUHU21636XXSP,2013-04-05 17:17:00,
2013-04-05 12:22:00,51.6,23.1,30.20,ENE,67,0.0,0.0,33,0.00,,,0.00,WUHU21636XXSP,2013-04-05 17:22:00,
2013-04-05 12:27:00,51.7,23.2,30.20,NE,45,0.0,0.0,33,0.00,,,0.00,WUHU21636XXSP,2013-04-05 17:27:00,
2013-04-05 12:32:00,52.6,24.1,30.20,East,90,0.0,0.0,33,0.00,,,0.00,WUHU21636XXSP,2013-04-05 17:32:00,
2013-04-05 12:37:00,52.6,23.3,30.20,ENE,67,0.0,0.0,32,0.00,,,0.00,WUHU21636XXSP,2013-04-05 17:37:00,
2013-04-05 12:42:00,52.6,24.1,30.20,ENE,67,0.0,0.0,33,0.00,,,0.00,WUHU21636XXSP,2013-04-05 17:42:00,
2013-04-05 12:47:00,53.0,23.7,30.20,SSE,157,0.0,0.0,32,0.00,,,0.00,WUHU21636XXSP,2013-04-05 17:47:00,
2013-04-05 12:53:00,53.5,24.2,30.19,NE,45,0.0,0.0,32,0.00,,,0.00,WUHU21636XXSP,2013-04-05 17:53:00,
2013-04-05 12:57:00,53.5,23.4,30.19,East,90,0.8,0.8,31,0.00,,,0.00,WUHU21636XXSP,2013-04-05 17:57:00,
2013-04-05 13:02:00,53.8,22.8,30.19,East,90,0.0,0.8,30,0.00,,,0.00,WUHU21636XXSP,2013-04-05 18:02:00,
2013-04-05 13:07:00,53.8,22.0,30.19,ESE,112,0.0,0.0,29,0.00,,,0.00,WUHU21636XXSP,2013-04-05 18:07:00,
2013-04-05 13:12:00,54.2,22.4,30.18,NE,45,0.0,0.0,29,0.00,,,0.00,WUHU21636XXSP,2013-04-05 18:12:00,
2013-04-05 13:17:00,55.1,24.0,30.18,ENE,67,0.0,0.0,30,0.00,,,0.00,WUHU21636XXSP,2013-04-05 18:17:00,
2013-04-05 13:22:00,55.4,23.5,30.18,ENE,67,0.0,0.0,29,0.00,,,0.00,WUHU21636XXSP,2013-04-05 18:22:00,
2013-04-05 13:27:00,55.7,24.5,30.18,SE,135,0.0,0.0,30,0.00,,,0.00,WUHU21636XXSP,2013-04-05 18:27:00,
2013-04-05 13:32:00,54.5,23.5,30.17,SSW,202,0.0,0.0,30,0.00,,,0.00,WUHU21636XXSP,2013-04-05 18:32:00,
2013-04-05 13:38:00,54.2,22.4,30.16,WSW,247,0.0,0.0,29,0.00,,,0.00,WUHU21636XXSP,2013-04-05 18:38:00,
2013-04-05 13:43:00,53.8,22.8,30.16,ENE,67,0.0,0.0,30,0.00,,,0.00,WUHU21636XXSP,2013-04-05 18:43:00,
2013-04-05 13:48:00,53.5,23.4,30.16,SSE,157,0.0,0.0,31,0.00,,,0.00,WUHU21636XXSP,2013-04-05 18:48:00,
2013-04-05 13:53:00,54.0,23.8,30.16,SSE,157,0.0,0.0,31,0.00,,,0.00,WUHU21636XXSP,2013-04-05 18:53:00,
2013-04-05 13:58:00,55.1,23.2,30.16,NE,45,0.0,0.0,29,0.00,,,0.00,WUHU21636XXSP,2013-04-05 18:58:00,
2013-04-05 14:03:00,54.7,23.6,30.15,SE,135,0.0,0.0,30,0.00,,,0.00,WUHU21636XXSP,2013-04-05 19:03:00,
2013-04-05 14:08:00,55.3,24.2,30.15,South,180,0.0,0.0,30,0.00,,,0.00,WUHU21636XXSP,2013-04-05 19:08:00,
2013-04-05 14:13:00,55.3,23.4,30.14,NE,45,0.0,0.0,29,0.00,,,0.00,WUHU21636XXSP,2013-04-05 19:13:00,
2013-04-05 14:18:00,54.7,22.0,30.15,NE,45,0.0,0.0,28,0.00,,,0.00,WUHU21636XXSP,2013-04-05 19:18:00,
2013-04-05 14:23:00,54.5,22.7,30.13,NE,45,0.0,0.0,29,0.00,,,0.00,WUHU21636XXSP,2013-04-05 19:23:00,
2013-04-05 14:28:00,54.5,21.8,30.14,South,180,0.0,0.0,28,0.00,,,0.00,WUHU21636XXSP,2013-04-05 19:28:00,
2013-04-05 14:33:00,54.9,22.2,30.13,NNE,22,0.0,0.0,28,0.00,,,0.00,WUHU21636XXSP,2013-04-05 19:33:00,
2013-04-05 14:38:00,53.8,20.4,30.13,SE,135,0.0,0.0,27,0.00,,,0.00,WUHU21636XXSP,2013-04-05 19:38:00,
2013-04-05 14:43:00,53.8,22.0,30.12,SE,135,0.0,0.0,29,0.00,,,0.00,WUHU21636XXSP,2013-04-05 19:43:00,
2013-04-05 14:48:00,52.8,21.2,30.12,South,180,0.0,0.0,29,0.00,,,0.00,WUHU21636XXSP,2013-04-05 19:48:00,
2013-04-05 14:53:00,53.0,21.4,30.12,ENE,67,0.0,0.0,29,0.00,,,0.00,WUHU21636XXSP,2013-04-05 19:53:00,
2013-04-05 14:58:00,53.4,21.7,30.12,ESE,112,0.0,0.0,29,0.00,,,0.00,WUHU21636XXSP,2013-04-05 19:58:00,
2013-04-05 15:03:00,53.8,21.2,30.12,SSW,202,0.0,0.0,28,0.00,,,0.00,WUHU21636XXSP,2013-04-05 20:03:00,
2013-04-05 15:08:00,53.5,21.8,30.12,East,90,0.0,0.0,29,0.00,,,0.00,WUHU21636XXSP,2013-04-05 20:08:00,
2013-04-05 15:13:00,53.5,22.6,30.12,SSE,157,0.0,0.0,30,0.00,,,0.00,WUHU21636XXSP,2013-04-05 20:13:00,
2013-04-05 15:18:00,54.0,23.0,30.12,NE,45,0.0,0.0,30,0.00,,,0.00,WUHU21636XXSP,2013-04-05 20:18:00,
2013-04-05 15:23:00,54.2,23.2,30.12,ESE,112,0.0,0.0,30,0.00,,,0.00,WUHU21636XXSP,2013-04-05 20:23:00,
2013-04-05 15:28:00,54.5,22.7,30.12,South,180,0.0,0.0,29,0.00,,,0.00,WUHU21636XXSP,2013-04-05 20:28:00,
2013-04-05 15:33:00,54.5,23.5,30.12,SW,225,0.0,0.0,30,0.00,,,0.00,WUHU21636XXSP,2013-04-05 20:33:00,
2013-04-05 15:38:00,54.7,22.0,30.12,WSW,247,0.0,0.0,28,0.00,,,0.00,WUHU21636XXSP,2013-04-05 20:38:00,
2013-04-05 15:43:00,54.5,21.8,30.12,WNW,292,0.0,0.0,28,0.00,,,0.00,WUHU21636XXSP,2013-04-05 20:43:00,
2013-04-05 15:48:00,54.2,24.0,30.12,NE,45,0.0,0.0,31,0.00,,,0.00,WUHU21636XXSP,2013-04-05 20:48:00,
2013-04-05 15:53:00,53.8,22.8,30.12,SE,135,0.0,0.0,30,0.00,,,0.00,WUHU21636XXSP,2013-04-05 20:53:00,
2013-04-05 15:58:00,52.8,22.8,30.12,SE,135,0.0,0.0,31,0.00,,,0.00,WUHU21636XXSP,2013-04-05 20:58:00,
2013-04-05 16:03:00,52.8,22.8,30.12,SE,135,0.0,0.0,31,0.00,,,0.00,WUHU21636XXSP,2013-04-05 21:03:00,
2013-04-05 16:08:00,53.0,23.0,30.11,ESE,112,0.0,0.0,31,0.00,,,0.00,WUHU21636XXSP,2013-04-05 21:08:00,
2013-04-05 16:13:00,52.3,22.3,30.11,East,90,0.0,0.0,31,0.00,,,0.00,WUHU21636XXSP,2013-04-05 21:13:00,
2013-04-05 16:18:00,51.3,23.0,30.11,SE,135,0.0,0.0,33,0.00,,,0.00,WUHU21636XXSP,2013-04-05 21:18:00,
2013-04-05 16:23:00,50.9,22.6,30.11,SE,135,0.0,0.0,33,0.00,,,0.00,WUHU21636XXSP,2013-04-05 21:23:00,
2013-04-05 16:28:00,50.6,21.6,30.11,West,270,0.0,0.0,32,0.00,,,0.00,WUHU21636XXSP,2013-04-05 21:28:00,
2013-04-05 16:33:00,50.0,21.8,30.11,WNW,292,0.0,0.0,33,0.00,,,0.00,WUHU21636XXSP,2013-04-05 21:33:00,
2013-04-05 16:38:00,49.5,21.3,30.11,WNW,292,0.0,0.0,33,0.00,,,0.00,WUHU21636XXSP,2013-04-05 21:38:00,
2013-04-05 16:43:00,49.7,21.5,30.11,WNW,292,0.0,0.0,33,0.00,,,0.00,WUHU21636XXSP,2013-04-05 21:43:00,
2013-04-05 16:48:00,50.2,21.9,30.10,WNW,292,0.0,0.0,33,0.00,,,0.00,WUHU21636XXSP,2013-04-05 21:48:00,
2013-04-05 16:53:00,50.7,22.4,30.10,WNW,292,0.0,0.0,33,0.00,,,0.00,WUHU21636XXSP,2013-04-05 21:53:00,
2013-04-05 16:58:00,50.9,22.6,30.10,West,270,0.0,0.0,33,0.00,,,0.00,WUHU21636XXSP,2013-04-05 21:58:00,
2013-04-05 17:03:00,50.2,21.9,30.10,WSW,247,0.0,0.0,33,0.00,,,0.00,WUHU21636XXSP,2013-04-05 22:03:00,
2013-04-05 17:08:00,50.2,22.7,30.10,WSW,247,0.0,0.0,34,0.00,,,0.00,WUHU21636XXSP,2013-04-05 22:08:00,
2013-04-05 17:13:00,50.4,22.1,30.10,WSW,247,0.0,0.0,33,0.00,,,0.00,WUHU21636XXSP,2013-04-05 22:13:00,
2013-04-05 17:18:00,50.2,22.7,30.10,WSW,247,0.0,0.0,34,0.00,,,0.00,WUHU21636XXSP,2013-04-05 22:18:00,
2013-04-05 17:23:00,50.4,22.1,30.10,WSW,247,0.0,0.0,33,0.00,,,0.00,WUHU21636XXSP,2013-04-05 22:23:00,
2013-04-05 17:28:00,50.2,22.7,30.10,WSW,247,0.0,0.0,34,0.00,,,0.00,WUHU21636XXSP,2013-04-05 22:28:00,
2013-04-05 17:33:00,49.8,22.3,30.09,WSW,247,0.0,0.0,34,0.00,,,0.00,WUHU21636XXSP,2013-04-05 22:33:00,
2013-04-05 17:38:00,49.8,23.0,30.08,WSW,247,0.0,0.0,35,0.00,,,0.00,WUHU21636XXSP,2013-04-05 22:38:00,
2013-04-05 17:43:00,49.8,22.3,30.08,SW,225,0.0,0.0,34,0.00,,,0.00,WUHU21636XXSP,2013-04-05 22:43:00,
2013-04-05 17:48:00,48.8,22.1,30.08,SW,225,0.0,0.0,35,0.00,,,0.00,WUHU21636XXSP,2013-04-05 22:48:00,
2013-04-05 17:53:00,48.3,22.3,30.08,West,270,0.0,0.0,36,0.00,,,0.00,WUHU21636XXSP,2013-04-05 22:53:00,
2013-04-05 17:58:00,48.1,22.8,30.09,SSE,157,0.0,0.0,37,0.00,,,0.00,WUHU21636XXSP,2013-04-05 22:58:00,
2013-04-05 18:03:00,46.8,23.6,30.08,WNW,292,0.0,0.0,40,0.00,,,0.00,WUHU21636XXSP,2013-04-05 23:03:00,
2013-04-05 18:08:00,46.2,23.6,30.09,SSW,202,0.0,0.0,41,0.00,,,0.00,WUHU21636XXSP,2013-04-05 23:08:00,
2013-04-05 18:13:00,45.9,23.9,30.09,West,270,0.0,0.0,42,0.00,,,0.00,WUHU21636XXSP,2013-04-05 23:13:00,
2013-04-05 18:18:00,45.9,24.5,30.09,SW,225,0.0,0.0,43,0.00,,,0.00,WUHU21636XXSP,2013-04-05 23:18:00,
2013-04-05 18:23:00,45.5,24.7,30.09,ESE,112,0.0,0.0,44,0.00,,,0.00,WUHU21636XXSP,2013-04-05 23:23:00,
2013-04-05 18:28:00,45.0,25.9,30.09,NNE,22,0.0,0.0,47,0.00,,,0.00,WUHU21636XXSP,2013-04-05 23:28:00,
2013-04-05 18:33:00,44.7,26.7,30.09,SSE,157,0.0,0.0,49,0.00,,,0.00,WUHU21636XXSP,2013-04-05 23:33:00,
2013-04-05 18:38:00,44.3,26.3,30.08,West,270,0.0,0.0,49,0.00,,,0.00,WUHU21636XXSP,2013-04-05 23:38:00,
2013-04-05 18:43:00,44.0,26.0,30.08,WSW,247,0.0,0.0,49,0.00,,,0.00,WUHU21636XXSP,2013-04-05 23:43:00,
2013-04-05 18:48:00,43.4,25.9,30.08,SW,225,0.0,0.0,50,0.00,,,0.00,WUHU21636XXSP,2013-04-05 23:48:00,
2013-04-05 18:53:00,43.2,26.7,30.08,NW,315,0.0,0.0,52,0.00,,,0.00,WUHU21636XXSP,2013-04-05 23:53:00,
2013-04-05 18:58:00,43.0,27.5,30.08,SW,225,0.0,0.0,54,0.00,,,0.00,WUHU21636XXSP,2013-04-05 23:58:00,
2013-04-05 19:03:00,42.6,27.1,30.09,WSW,247,0.0,0.0,54,0.00,,,0.00,WUHU21636XXSP,2013-04-06 00:03:00,
2013-04-05 19:09:00,42.6,28.5,30.09,ENE,67,0.0,0.0,57,0.00,,,0.00,WUHU21636XXSP,2013-04-06 00:09:00,
2013-04-05 19:14:00,42.1,29.3,30.08,ENE,67,0.0,0.0,60,0.00,,,0.00,WUHU21636XXSP,2013-04-06 00:14:00,
2013-04-05 19:19:00,41.3,29.7,30.08,East,90,0.0,0.0,63,0.00,,,0.00,WUHU21636XXSP,2013-04-06 00:19:00,
2013-04-05 19:24:00,40.5,29.8,30.07,ENE,67,0.0,0.0,65,0.00,,,0.00,WUHU21636XXSP,2013-04-06 00:24:00,
2013-04-05 19:29:00,40.0,30.4,30.07,SE,135,0.0,0.0,68,0.00,,,0.00,WUHU21636XXSP,2013-04-06 00:29:00,
2013-04-05 19:34:00,39.4,30.1,30.06,SSE,157,0.0,0.0,69,0.00,,,0.00,WUHU21636XXSP,2013-04-06 00:34:00,
2013-04-05 19:39:00,38.8,30.0,30.06,SSE,157,0.0,0.0,70,0.00,,,0.00,WUHU21636XXSP,2013-04-06 00:39:00,
2013-04-05 19:44:00,38.8,30.3,30.06,ENE,67,0.0,0.0,71,0.02,,,0.00,WUHU21636XXSP,2013-04-06 00:44:00,
2013-04-05 19:49:00,38.6,30.1,30.05,West,270,0.0,0.0,71,0.02,,,0.02,WUHU21636XXSP,2013-04-06 00:49:00,
2013-04-05 19:54:00,38.4,30.3,30.06,NNE,22,0.0,0.0,72,0.02,,,0.02,WUHU21636XXSP,2013-04-06 00:54:00,
2013-04-05 19:59:00,38.4,30.3,30.05,NE,45,0.0,0.0,72,0.02,,,0.02,WUHU21636XXSP,2013-04-06 00:59:00,
2013-04-05 20:04:00,38.6,30.8,30.05,NE,45,0.0,0.0,73,0.02,,,0.02,WUHU21636XXSP,2013-04-06 01:04:00,
2013-04-05 20:09:00,38.4,30.3,30.05,NNE,22,0.0,0.0,72,0.02,,,0.02,WUHU21636XXSP,2013-04-06 01:09:00,
2013-04-05 20:14:00,38.4,30.6,30.05,NNE,22,0.0,0.0,73,0.02,,,0.02,WUHU21636XXSP,2013-04-06 01:14:00,
2013-04-05 20:19:00,38.4,30.6,30.05,North,0,0.0,0.0,73,0.02,,,0.02,WUHU21636XXSP,2013-04-06 01:19:00,
2013-04-05 20:24:00,38.4,30.9,30.04,NE,45,0.0,0.0,74,0.02,,,0.02,WUHU21636XXSP,2013-04-06 01:24:00,
2013-04-05 20:29:00,38.4,30.6,30.03,NE,45,0.0,0.0,73,0.02,,,0.02,WUHU21636XXSP,2013-04-06 01:29:00,
2013-04-05 20:34:00,38.3,30.8,30.04,WNW,292,0.0,0.0,74,0.02,,,0.02,WUHU21636XXSP,2013-04-06 01:34:00,
2013-04-05 20:39:00,38.3,30.5,30.04,NW,315,0.0,0.0,73,0.02,,,0.02,WUHU21636XXSP,2013-04-06 01:39:00,
2013-04-05 20:44:00,38.3,30.5,30.05,ENE,67,0.0,0.0,73,0.02,,,0.02,WUHU21636XXSP,2013-04-06 01:44:00,
2013-04-05 20:50:00,38.3,30.5,30.05,NE,45,0.0,0.0,73,0.02,,,0.02,WUHU21636XXSP,2013-04-06 01:50:00,
2013-04-05 20:55:00,38.4,30.6,30.05,NE,45,0.0,0.0,73,0.02,,,0.02,WUHU21636XXSP,2013-04-06 01:55:00,
2013-04-05 20:59:00,38.4,30.6,30.05,NE,45,0.0,0.0,73,0.02,,,0.02,WUHU21636XXSP,2013-04-06 01:59:00,
2013-04-05 21:04:00,38.4,30.6,30.04,NE,45,0.0,0.0,73,0.00,,,0.02,WUHU21636XXSP,2013-04-06 02:04:00,
2013-04-05 21:10:00,38.4,30.9,30.03,ENE,67,0.0,0.0,74,0.00,,,0.02,WUHU21636XXSP,2013-04-06 02:10:00,
2013-04-05 21:15:00,38.3,30.8,30.04,ESE,112,0.0,0.0,74,0.00,,,0.02,WUHU21636XXSP,2013-04-06 02:15:00,
2013-04-05 21:20:00,37.9,30.1,30.03,ESE,112,0.0,0.0,73,0.00,,,0.02,WUHU21636XXSP,2013-04-06 02:20:00,
2013-04-05 21:25:00,38.1,30.6,30.03,ESE,112,0.0,0.0,74,0.00,,,0.02,WUHU21636XXSP,2013-04-06 02:25:00,
2013-04-05 21:30:00,38.1,30.6,30.03,ESE,112,0.0,0.0,74,0.00,,,0.02,WUHU21636XXSP,2013-04-06 02:30:00,
2013-04-05 21:35:00,37.7,30.2,30.05,ESE,112,0.0,0.0,74,0.00,,,0.02,WUHU21636XXSP,2013-04-06 02:35:00,
2013-04-05 21:40:00,37.5,29.7,30.04,NE,45,0.0,0.0,73,0.00,,,0.02,WUHU21636XXSP,2013-04-06 02:40:00,
2013-04-05 21:45:00,37.5,30.0,30.04,East,90,0.0,0.0,74,0.00,,,0.02,WUHU21636XXSP,2013-04-06 02:45:00,
2013-04-05 21:51:00,37.5,30.0,30.05,East,90,0.0,0.0,74,0.00,,,0.02,WUHU21636XXSP,2013-04-06 02:51:00,
2013-04-05 21:56:00,37.5,30.0,30.04,East,90,0.0,0.0,74,0.00,,,0.02,WUHU21636XXSP,2013-04-06 02:56:00,
2013-04-05 22:01:00,37.5,30.3,30.03,East,90,0.0,0.0,75,0.00,,,0.02,WUHU21636XXSP,2013-04-06 03:01:00,
2013-04-05 22:06:00,37.5,30.3,30.04,NE,45,0.0,0.0,75,0.00,,,0.02,WUHU21636XXSP,2013-04-06 03:06:00,
2013-04-05 22:11:00,37.4,29.6,30.04,North,0,0.0,0.0,73,0.00,,,0.02,WUHU21636XXSP,2013-04-06 03:11:00,
2013-04-05 22:16:00,37.5,29.7,30.04,East,90,0.0,0.0,73,0.00,,,0.02,WUHU21636XXSP,2013-04-06 03:16:00,
2013-04-05 22:21:00,37.5,29.7,30.02,East,90,0.0,0.0,73,0.00,,,0.02,WUHU21636XXSP,2013-04-06 03:21:00,
2013-04-05 22:26:00,37.5,29.7,30.02,East,90,0.0,0.0,73,0.00,,,0.02,WUHU21636XXSP,2013-04-06 03:26:00,
2013-04-05 22:31:00,37.2,29.4,30.02,WNW,292,0.0,0.0,73,0.00,,,0.02,WUHU21636XXSP,2013-04-06 03:31:00,
2013-04-05 22:36:00,37.4,29.2,30.03,SE,135,0.0,0.0,72,0.00,,,0.02,WUHU21636XXSP,2013-04-06 03:36:00,
2013-04-05 22:41:00,37.5,29.7,30.02,SE,135,0.0,0.0,73,0.00,,,0.02,WUHU21636XXSP,2013-04-06 03:41:00,
2013-04-05 22:46:00,37.5,29.7,30.02,SE,135,0.0,0.0,73,0.00,,,0.02,WUHU21636XXSP,2013-04-06 03:46:00,
2013-04-05 22:52:00,37.4,29.6,30.02,SE,135,0.0,0.0,73,0.00,,,0.02,WUHU21636XXSP,2013-04-06 03:52:00,
2013-04-05 22:57:00,37.4,29.6,30.02,SE,135,0.0,0.0,73,0.00,,,0.02,WUHU21636XXSP,2013-04-06 03:57:00,
2013-04-05 23:00:00,37.4,29.6,30.02,SE,135,0.0,0.0,73,0.00,,,0.02,WUHU21636XXSP,2013-04-06 04:00:00,
2013-04-05 23:05:00,37.4,29.6,30.02,SE,135,0.0,0.0,73,0.00,,,0.02,WUHU21636XXSP,2013-04-06 04:05:00,
2013-04-05 23:10:00,37.4,29.6,30.01,SE,135,0.0,0.0,73,0.00,,,0.02,WUHU21636XXSP,2013-04-06 04:10:00,
2013-04-05 23:15:00,37.4,29.6,30.01,SE,135,0.0,0.0,73,0.00,,,0.02,WUHU21636XXSP,2013-04-06 04:15:00,
2013-04-05 23:20:00,37.2,29.0,30.01,SE,135,0.0,0.0,72,0.00,,,0.02,WUHU21636XXSP,2013-04-06 04:20:00,
2013-04-05 23:25:00,37.2,28.7,30.01,ENE,67,0.0,0.0,71,0.00,,,0.02,WUHU21636XXSP,2013-04-06 04:25:00,
2013-04-05 23:30:00,37.2,28.4,30.01,ENE,67,0.0,0.0,70,0.00,,,0.02,WUHU21636XXSP,2013-04-06 04:30:00,
2013-04-05 23:35:00,37.5,28.0,30.01,NNE,22,0.0,0.0,68,0.00,,,0.02,WUHU21636XXSP,2013-04-06 04:35:00,
2013-04-05 23:40:00,37.7,27.4,30.01,ENE,67,0.0,0.0,66,0.00,,,0.02,WUHU21636XXSP,2013-04-06 04:40:00,
2013-04-05 23:45:00,37.7,28.2,30.00,NE,45,0.0,0.0,68,0.00,,,0.02,WUHU21636XXSP,2013-04-06 04:45:00,
2013-04-05 23:50:00,37.7,27.8,29.99,ENE,67,0.0,0.0,67,0.00,,,0.02,WUHU21636XXSP,2013-04-06 04:50:00,
2013-04-05 23:55:00,37.7,27.4,29.99,ENE,67,0.0,0.0,66,0.00,,,0.02,WUHU21636XXSP,2013-04-06 04:55:00,